RUK3DN EGSS-EGPF
Flight info
| Callsign | RUK3DN |
|---|---|
| Flight time | N/A |
| Altitude | 32000 |
| Route | UTAVA Q75 BUZAD T420 TNT UN57 POL UN601 RIBEL DCT ASLIB |
| Aircraft | B738/M-SDE2E3FGHIRWXY/LB1 |
Departure
| Time | 2026-05-05 14:52 |
|---|---|
| Airport | London Stansted Airport (EGSS) |
Arrival
| Time | N/A |
|---|---|
| Airport | Glasgow Airport (EGPF) |
| Time | Latitude | Longitude | Altitude | Speed | Heading |
|---|---|---|---|---|---|
| 2026-05-05 14:38 | 51.89381 | 0.26008 | 349 ft | 2 kts | 223° |
| 2026-05-05 14:38 | 51.89392 | 0.26025 | 349 ft | 2 kts | 222° |
| 2026-05-05 14:38 | 51.89403 | 0.26041 | 349 ft | 2 kts | 223° |
| 2026-05-05 14:38 | 51.89411 | 0.26057 | 349 ft | 1 kts | 266° |
| 2026-05-05 14:39 | 51.89406 | 0.26077 | 349 ft | 2 kts | 321° |
| 2026-05-05 14:39 | 51.89395 | 0.26093 | 349 ft | 1 kts | 310° |
| 2026-05-05 14:39 | 51.89394 | 0.26095 | 349 ft | 0 kts | 309° |
| 2026-05-05 14:41 | 51.89404 | 0.26077 | 349 ft | 6 kts | 313° |
| 2026-05-05 14:41 | 51.89450 | 0.26000 | 349 ft | 9 kts | 313° |
| 2026-05-05 14:41 | 51.89496 | 0.25921 | 349 ft | 9 kts | 313° |
| 2026-05-05 14:42 | 51.89534 | 0.25845 | 349 ft | 6 kts | 290° |
| 2026-05-05 14:42 | 51.89503 | 0.25775 | 348 ft | 9 kts | 226° |
| 2026-05-05 14:42 | 51.89445 | 0.25680 | 345 ft | 16 kts | 223° |
| 2026-05-05 14:42 | 51.89357 | 0.25548 | 343 ft | 17 kts | 223° |
| 2026-05-05 14:43 | 51.89266 | 0.25411 | 341 ft | 18 kts | 222° |
| 2026-05-05 14:43 | 51.89172 | 0.25272 | 339 ft | 18 kts | 222° |
| 2026-05-05 14:43 | 51.89074 | 0.25124 | 335 ft | 20 kts | 223° |
| 2026-05-05 14:43 | 51.88967 | 0.24962 | 332 ft | 21 kts | 223° |
| 2026-05-05 14:44 | 51.88857 | 0.24797 | 330 ft | 21 kts | 223° |
| 2026-05-05 14:44 | 51.88746 | 0.24630 | 330 ft | 21 kts | 222° |
| 2026-05-05 14:44 | 51.88640 | 0.24472 | 329 ft | 20 kts | 223° |
| 2026-05-05 14:44 | 51.88532 | 0.24310 | 330 ft | 22 kts | 223° |
| 2026-05-05 14:45 | 51.88390 | 0.24093 | 332 ft | 32 kts | 221° |
| 2026-05-05 14:45 | 51.88229 | 0.23856 | 336 ft | 30 kts | 223° |
| 2026-05-05 14:45 | 51.88084 | 0.23636 | 339 ft | 27 kts | 222° |
| 2026-05-05 14:45 | 51.87944 | 0.23427 | 339 ft | 27 kts | 223° |
| 2026-05-05 14:46 | 51.87807 | 0.23223 | 338 ft | 23 kts | 222° |
| 2026-05-05 14:46 | 51.87734 | 0.23095 | 337 ft | 11 kts | 252° |
| 2026-05-05 14:46 | 51.87758 | 0.22988 | 337 ft | 9 kts | 312° |
| 2026-05-05 14:46 | 51.87786 | 0.22909 | 338 ft | 7 kts | 258° |
| 2026-05-05 14:47 | 51.87745 | 0.22832 | 337 ft | 11 kts | 222° |
| 2026-05-05 14:47 | 51.87727 | 0.22807 | 337 ft | 12 kts | 222° |
| 2026-05-05 14:47 | 51.87665 | 0.22712 | 336 ft | 12 kts | 223° |
| 2026-05-05 14:47 | 51.87603 | 0.22619 | 337 ft | 11 kts | 223° |
| 2026-05-05 14:48 | 51.87549 | 0.22537 | 337 ft | 10 kts | 223° |
| 2026-05-05 14:48 | 51.87516 | 0.22451 | 336 ft | 8 kts | 284° |
| 2026-05-05 14:48 | 51.87545 | 0.22383 | 337 ft | 4 kts | 312° |
| 2026-05-05 14:48 | 51.87552 | 0.22371 | 337 ft | 0 kts | 312° |
| 2026-05-05 14:49 | 51.87553 | 0.22369 | 337 ft | 1 kts | 312° |
| 2026-05-05 14:49 | 51.87601 | 0.22292 | 337 ft | 13 kts | 324° |
| 2026-05-05 14:50 | 51.87666 | 0.22260 | 338 ft | 6 kts | 4° |
| 2026-05-05 14:50 | 51.87696 | 0.22277 | 338 ft | 3 kts | 32° |
| 2026-05-05 14:50 | 51.87706 | 0.22288 | 339 ft | 0 kts | 41° |
| 2026-05-05 14:51 | 51.87740 | 0.22337 | 339 ft | 15 kts | 42° |
| 2026-05-05 14:51 | 51.87942 | 0.22644 | 339 ft | 73 kts | 43° |
| 2026-05-05 14:51 | 51.88471 | 0.23435 | 340 ft | 132 kts | 43° |
| 2026-05-05 14:51 | 51.89263 | 0.24627 | 450 ft | 167 kts | 42° |
| 2026-05-05 14:52 | 51.90058 | 0.25882 | 1116 ft | 162 kts | 47° |
| 2026-05-05 14:52 | 51.90839 | 0.27188 | 1949 ft | 161 kts | 43° |
| 2026-05-05 14:52 | 51.91669 | 0.28396 | 2441 ft | 167 kts | 39° |
| 2026-05-05 14:52 | 51.92641 | 0.29572 | 2761 ft | 181 kts | 27° |
| 2026-05-05 14:53 | 51.93883 | 0.30078 | 3186 ft | 191 kts | 358° |
| 2026-05-05 14:53 | 51.95157 | 0.29510 | 3582 ft | 204 kts | 334° |
| 2026-05-05 14:53 | 51.96369 | 0.27994 | 3818 ft | 229 kts | 313° |
| 2026-05-05 14:53 | 51.97126 | 0.25646 | 4160 ft | 250 kts | 287° |
| 2026-05-05 14:54 | 51.97399 | 0.22845 | 4734 ft | 258 kts | 278° |
| 2026-05-05 14:54 | 51.97595 | 0.19996 | 5529 ft | 255 kts | 278° |
| 2026-05-05 14:54 | 51.97819 | 0.16983 | 5691 ft | 281 kts | 279° |
| 2026-05-05 14:54 | 51.98102 | 0.13930 | 6575 ft | 275 kts | 281° |
| 2026-05-05 14:55 | 51.98443 | 0.10869 | 7287 ft | 278 kts | 282° |
| 2026-05-05 14:55 | 51.98790 | 0.07828 | 8016 ft | 280 kts | 281° |
| 2026-05-05 14:55 | 51.98963 | 0.04691 | 8756 ft | 283 kts | 270° |
| 2026-05-05 14:55 | 51.98799 | 0.01489 | 9532 ft | 286 kts | 263° |
| 2026-05-05 14:56 | 51.98505 | -0.01685 | 10253 ft | 290 kts | 262° |
| 2026-05-05 14:56 | 51.98191 | -0.04951 | 10641 ft | 305 kts | 262° |
| 2026-05-05 14:56 | 51.97886 | -0.08436 | 11056 ft | 320 kts | 263° |
| 2026-05-05 14:56 | 51.97590 | -0.12120 | 11433 ft | 335 kts | 264° |
| 2026-05-05 14:57 | 51.97302 | -0.15876 | 12089 ft | 342 kts | 264° |
| 2026-05-05 14:57 | 51.97010 | -0.19711 | 12781 ft | 347 kts | 264° |
| 2026-05-05 14:57 | 51.96714 | -0.23607 | 13477 ft | 352 kts | 264° |
| 2026-05-05 14:57 | 51.96412 | -0.27534 | 14233 ft | 356 kts | 264° |
| 2026-05-05 14:58 | 51.96107 | -0.31476 | 15072 ft | 357 kts | 263° |
| 2026-05-05 14:58 | 51.95794 | -0.35473 | 15892 ft | 359 kts | 263° |
| 2026-05-05 14:58 | 51.95481 | -0.39456 | 16650 ft | 362 kts | 263° |
| 2026-05-05 14:58 | 51.95164 | -0.43499 | 17430 ft | 364 kts | 264° |
| 2026-05-05 14:59 | 51.95032 | -0.47604 | 18138 ft | 367 kts | 273° |
| 2026-05-05 14:59 | 51.95477 | -0.51635 | 18770 ft | 372 kts | 289° |
| 2026-05-05 14:59 | 51.96622 | -0.55398 | 19423 ft | 376 kts | 303° |
| 2026-05-05 14:59 | 51.98238 | -0.58692 | 20083 ft | 380 kts | 314° |
| 2026-05-05 15:00 | 52.00254 | -0.61523 | 20692 ft | 385 kts | 323° |
| 2026-05-05 15:00 | 52.01709 | -0.63131 | 21096 ft | 388 kts | 327° |
| 2026-05-05 15:00 | 52.04836 | -0.66163 | 21856 ft | 394 kts | 329° |
| 2026-05-05 15:00 | 52.07223 | -0.68366 | 22434 ft | 398 kts | 329° |